This is the latest recevied weather packets stored in our database for station/object AA6HF. If no packets are shown the sender has not sent any weather packets the latest 10 day(s).
| Time | Temp. | Humidity | Pressure | Rain* | Wind** | Luminosity | Snow |
|---|---|---|---|---|---|---|---|
| 1787931823 | 36.11° C | 40% | 1009.7 hPa | 0 mm | - | - | - |
| 1787931523 | 36.11° C | 40% | 1009.6 hPa | 0 mm | - | - | - |
| 1787931223 | 36.11° C | 39% | 1009.6 hPa | 0 mm | - | - | - |
| 1787930923 | 36.11° C | 38% | 1009.4 hPa | 0 mm | - | - | - |
| 1787930623 | 36.11° C | 38% | 1009.3 hPa | 0 mm | - | - | - |
| 1787930323 | 35.56° C | 38% | 1009.2 hPa | 0 mm | - | - | - |
| 1787930023 | 35° C | 38% | 1009.2 hPa | 0 mm | - | - | - |
| 1787929723 | 35° C | 37% | 1009.2 hPa | 0 mm | - | - | - |
| 1787929423 | 35° C | 36% | 1009.1 hPa | 0 mm | - | - | - |
| 1787929123 | 33.89° C | 37% | 1009.2 hPa | 0 mm | - | - | - |
| 1787928823 | 33.33° C | 38% | 1009.1 hPa | 0 mm | - | - | - |
| 1787928523 | 33.33° C | 38% | 1009 hPa | 0 mm | - | - | - |
| 1787928228 | 32.78° C | 37% | 1008.8 hPa | 0 mm | - | - | - |
| 1787927923 | 31.67° C | 42% | 1008.5 hPa | 0 mm | - | - | - |
| 1787927623 | 31.11° C | 43% | 1008.3 hPa | 0 mm | - | - | - |
| 1787927323 | 30° C | 46% | 1008.1 hPa | 0 mm | - | - | - |
| 1787927023 | 29.44° C | 48% | 1008 hPa | 0 mm | - | - | - |
| 1787926723 | 29.44° C | 49% | 1007.8 hPa | 0 mm | - | - | - |
| 1787926423 | 29.44° C | 50% | 1007.7 hPa | 0 mm | - | - | - |
| 1787926123 | 28.89° C | 51% | 1007.7 hPa | 0 mm | - | - | - |
| 1787925823 | 28.89° C | 51% | 1007.6 hPa | 0 mm | - | - | - |
| 1787925523 | 28.89° C | 53% | 1007.6 hPa | 0 mm | - | - | - |
| 1787925223 | 28.33° C | 52% | 1007.4 hPa | 0 mm | - | - | - |
| 1787924923 | 28.33° C | 54% | 1007.4 hPa | 0 mm | - | - | - |
| 1787924623 | 28.33° C | 53% | 1007.2 hPa | 0 mm | - | - | - |
* Rain latest hour (hover to see other rain measurements)
** Current wind speed in m/s (hover to see current wind gust speed)